sensor_id;sensor_type;location;lat;lon;timestamp;P1;durP1;ratioP1;P2;durP2;ratioP2
74042;SDS011;62384;53.600;10.040;2023-08-31T00:00:50;11.75;;;6.13;;
74042;SDS011;62384;53.600;10.040;2023-08-31T00:03:16;13.20;;;6.75;;
74042;SDS011;62384;53.600;10.040;2023-08-31T00:05:42;12.55;;;6.18;;
74042;SDS011;62384;53.600;10.040;2023-08-31T00:08:08;12.73;;;6.63;;
74042;SDS011;62384;53.600;10.040;2023-08-31T00:10:35;12.70;;;6.10;;
74042;SDS011;62384;53.600;10.040;2023-08-31T00:13:01;14.27;;;6.20;;
74042;SDS011;62384;53.600;10.040;2023-08-31T00:15:27;12.68;;;6.30;;
74042;SDS011;62384;53.600;10.040;2023-08-31T00:17:53;10.88;;;5.70;;
74042;SDS011;62384;53.600;10.040;2023-08-31T00:20:19;10.50;;;5.05;;
74042;SDS011;62384;53.600;10.040;2023-08-31T00:22:44;10.90;;;5.18;;
74042;SDS011;62384;53.600;10.040;2023-08-31T00:25:09;12.93;;;5.57;;
74042;SDS011;62384;53.600;10.040;2023-08-31T00:27:35;11.38;;;5.35;;
74042;SDS011;62384;53.600;10.040;2023-08-31T00:30:02;12.57;;;6.00;;
74042;SDS011;62384;53.600;10.040;2023-08-31T00:32:31;9.52;;;4.85;;
74042;SDS011;62384;53.600;10.040;2023-08-31T00:35:02;8.75;;;4.75;;
74042;SDS011;62384;53.600;10.040;2023-08-31T00:37:28;9.45;;;4.95;;
74042;SDS011;62384;53.600;10.040;2023-08-31T00:39:55;10.57;;;5.05;;
74042;SDS011;62384;53.600;10.040;2023-08-31T00:42:20;11.38;;;5.57;;
74042;SDS011;62384;53.600;10.040;2023-08-31T00:44:46;9.68;;;5.43;;
74042;SDS011;62384;53.600;10.040;2023-08-31T00:47:12;9.77;;;4.50;;
74042;SDS011;62384;53.600;10.040;2023-08-31T00:49:38;10.95;;;5.47;;
74042;SDS011;62384;53.600;10.040;2023-08-31T00:52:05;9.60;;;4.57;;
74042;SDS011;62384;53.600;10.040;2023-08-31T00:54:31;9.73;;;5.07;;
74042;SDS011;62384;53.600;10.040;2023-08-31T00:56:56;11.82;;;5.10;;
74042;SDS011;62384;53.600;10.040;2023-08-31T00:59:22;8.10;;;4.63;;
74042;SDS011;62384;53.600;10.040;2023-08-31T01:04:21;10.23;;;4.82;;
74042;SDS011;62384;53.600;10.040;2023-08-31T01:09:31;11.38;;;5.13;;
74042;SDS011;62384;53.600;10.040;2023-08-31T01:17:33;17.92;;;5.20;;
74042;SDS011;62384;53.600;10.040;2023-08-31T01:20:09;10.90;;;4.65;;
74042;SDS011;62384;53.600;10.040;2023-08-31T01:25:08;7.00;;;3.72;;
74042;SDS011;62384;53.600;10.040;2023-08-31T01:27:40;10.45;;;4.35;;
74042;SDS011;62384;53.600;10.040;2023-08-31T01:30:06;9.40;;;4.78;;
74042;SDS011;62384;53.600;10.040;2023-08-31T01:32:36;9.32;;;4.50;;
74042;SDS011;62384;53.600;10.040;2023-08-31T01:35:02;12.98;;;4.82;;
74042;SDS011;62384;53.600;10.040;2023-08-31T01:37:39;10.23;;;4.30;;
74042;SDS011;62384;53.600;10.040;2023-08-31T01:42:49;9.07;;;4.18;;
74042;SDS011;62384;53.600;10.040;2023-08-31T01:45:18;7.43;;;4.10;;
74042;SDS011;62384;53.600;10.040;2023-08-31T01:47:45;7.63;;;3.92;;
74042;SDS011;62384;53.600;10.040;2023-08-31T01:50:11;12.88;;;4.40;;
74042;SDS011;62384;53.600;10.040;2023-08-31T01:52:40;9.13;;;5.07;;
74042;SDS011;62384;53.600;10.040;2023-08-31T01:55:05;7.90;;;4.30;;
74042;SDS011;62384;53.600;10.040;2023-08-31T01:57:31;9.50;;;4.47;;
74042;SDS011;62384;53.600;10.040;2023-08-31T01:59:57;11.65;;;5.05;;
74042;SDS011;62384;53.600;10.040;2023-08-31T02:02:23;10.50;;;4.82;;
74042;SDS011;62384;53.600;10.040;2023-08-31T02:04:48;9.73;;;4.38;;
74042;SDS011;62384;53.600;10.040;2023-08-31T02:07:15;7.80;;;4.15;;
74042;SDS011;62384;53.600;10.040;2023-08-31T02:09:40;8.25;;;4.45;;
74042;SDS011;62384;53.600;10.040;2023-08-31T02:12:11;10.85;;;5.45;;
74042;SDS011;62384;53.600;10.040;2023-08-31T02:14:36;9.73;;;4.68;;
74042;SDS011;62384;53.600;10.040;2023-08-31T02:17:01;9.82;;;4.95;;
74042;SDS011;62384;53.600;10.040;2023-08-31T02:19:30;8.93;;;5.22;;
74042;SDS011;62384;53.600;10.040;2023-08-31T02:21:55;13.40;;;5.85;;
74042;SDS011;62384;53.600;10.040;2023-08-31T02:24:20;13.10;;;4.90;;
74042;SDS011;62384;53.600;10.040;2023-08-31T02:26:48;9.80;;;4.68;;
74042;SDS011;62384;53.600;10.040;2023-08-31T02:29:17;13.35;;;5.07;;
74042;SDS011;62384;53.600;10.040;2023-08-31T02:31:42;10.70;;;5.28;;
74042;SDS011;62384;53.600;10.040;2023-08-31T02:34:07;9.63;;;5.20;;
74042;SDS011;62384;53.600;10.040;2023-08-31T02:36:32;8.98;;;4.70;;
74042;SDS011;62384;53.600;10.040;2023-08-31T02:38:58;8.38;;;4.22;;
74042;SDS011;62384;53.600;10.040;2023-08-31T02:41:23;12.10;;;5.78;;
74042;SDS011;62384;53.600;10.040;2023-08-31T02:43:55;10.00;;;5.22;;
74042;SDS011;62384;53.600;10.040;2023-08-31T02:46:21;9.70;;;4.65;;
74042;SDS011;62384;53.600;10.040;2023-08-31T02:48:46;11.13;;;5.03;;
74042;SDS011;62384;53.600;10.040;2023-08-31T02:51:11;8.18;;;4.30;;
74042;SDS011;62384;53.600;10.040;2023-08-31T02:53:37;10.10;;;4.95;;
74042;SDS011;62384;53.600;10.040;2023-08-31T02:56:02;8.55;;;4.60;;
74042;SDS011;62384;53.600;10.040;2023-08-31T02:58:29;13.85;;;4.45;;
74042;SDS011;62384;53.600;10.040;2023-08-31T03:01:15;9.88;;;4.60;;
74042;SDS011;62384;53.600;10.040;2023-08-31T03:03:41;13.48;;;4.40;;
74042;SDS011;62384;53.600;10.040;2023-08-31T03:06:07;8.93;;;4.55;;
74042;SDS011;62384;53.600;10.040;2023-08-31T03:08:39;9.48;;;3.85;;
74042;SDS011;62384;53.600;10.040;2023-08-31T03:11:05;6.72;;;4.55;;
74042;SDS011;62384;53.600;10.040;2023-08-31T03:13:31;9.07;;;3.95;;
74042;SDS011;62384;53.600;10.040;2023-08-31T03:15:59;7.55;;;4.30;;
74042;SDS011;62384;53.600;10.040;2023-08-31T03:18:25;8.40;;;4.60;;
74042;SDS011;62384;53.600;10.040;2023-08-31T03:20:51;9.65;;;5.03;;
74042;SDS011;62384;53.600;10.040;2023-08-31T03:23:16;8.27;;;4.05;;
74042;SDS011;62384;53.600;10.040;2023-08-31T03:25:42;8.43;;;4.72;;
74042;SDS011;62384;53.600;10.040;2023-08-31T03:28:07;8.48;;;3.88;;
74042;SDS011;62384;53.600;10.040;2023-08-31T03:30:33;10.32;;;4.00;;
74042;SDS011;62384;53.600;10.040;2023-08-31T03:32:59;11.60;;;4.43;;
74042;SDS011;62384;53.600;10.040;2023-08-31T03:35:24;8.10;;;4.18;;
74042;SDS011;62384;53.600;10.040;2023-08-31T03:37:55;7.53;;;3.33;;
74042;SDS011;62384;53.600;10.040;2023-08-31T03:40:20;6.65;;;3.55;;
74042;SDS011;62384;53.600;10.040;2023-08-31T03:42:47;8.02;;;3.20;;
74042;SDS011;62384;53.600;10.040;2023-08-31T03:45:12;10.13;;;4.30;;
74042;SDS011;62384;53.600;10.040;2023-08-31T03:47:41;8.45;;;3.17;;
74042;SDS011;62384;53.600;10.040;2023-08-31T03:50:06;7.57;;;3.63;;
74042;SDS011;62384;53.600;10.040;2023-08-31T03:52:33;9.10;;;2.60;;
74042;SDS011;62384;53.600;10.040;2023-08-31T03:54:59;9.38;;;3.28;;
74042;SDS011;62384;53.600;10.040;2023-08-31T03:57:31;10.02;;;3.17;;
74042;SDS011;62384;53.600;10.040;2023-08-31T04:00:12;9.82;;;2.92;;
74042;SDS011;62384;53.600;10.040;2023-08-31T04:02:37;11.65;;;3.60;;
74042;SDS011;62384;53.600;10.040;2023-08-31T04:05:09;8.15;;;2.97;;
74042;SDS011;62384;53.600;10.040;2023-08-31T04:07:39;5.65;;;2.75;;
74042;SDS011;62384;53.600;10.040;2023-08-31T04:10:04;6.38;;;2.65;;
74042;SDS011;62384;53.600;10.040;2023-08-31T04:12:30;8.27;;;3.25;;
74042;SDS011;62384;53.600;10.040;2023-08-31T04:14:56;6.82;;;2.90;;
74042;SDS011;62384;53.600;10.040;2023-08-31T04:17:21;7.22;;;2.25;;
74042;SDS011;62384;53.600;10.040;2023-08-31T04:19:46;5.65;;;2.78;;
74042;SDS011;62384;53.600;10.040;2023-08-31T04:22:12;5.97;;;2.65;;
74042;SDS011;62384;53.600;10.040;2023-08-31T04:24:39;9.85;;;2.63;;
74042;SDS011;62384;53.600;10.040;2023-08-31T04:27:04;6.90;;;2.63;;
74042;SDS011;62384;53.600;10.040;2023-08-31T04:29:29;4.95;;;2.80;;
74042;SDS011;62384;53.600;10.040;2023-08-31T04:31:55;5.68;;;2.60;;
74042;SDS011;62384;53.600;10.040;2023-08-31T04:34:20;9.20;;;3.10;;
74042;SDS011;62384;53.600;10.040;2023-08-31T04:36:46;5.43;;;2.83;;
74042;SDS011;62384;53.600;10.040;2023-08-31T04:39:11;4.25;;;2.53;;
74042;SDS011;62384;53.600;10.040;2023-08-31T04:41:37;5.43;;;2.30;;
74042;SDS011;62384;53.600;10.040;2023-08-31T04:44:02;5.53;;;2.80;;
74042;SDS011;62384;53.600;10.040;2023-08-31T04:46:27;6.20;;;3.33;;
74042;SDS011;62384;53.600;10.040;2023-08-31T04:48:59;5.75;;;2.92;;
74042;SDS011;62384;53.600;10.040;2023-08-31T04:51:28;6.22;;;2.90;;
74042;SDS011;62384;53.600;10.040;2023-08-31T04:53:54;5.57;;;3.63;;
74042;SDS011;62384;53.600;10.040;2023-08-31T04:56:20;7.45;;;2.92;;
74042;SDS011;62384;53.600;10.040;2023-08-31T04:58:45;6.68;;;3.00;;
74042;SDS011;62384;53.600;10.040;2023-08-31T05:01:10;9.20;;;2.72;;
74042;SDS011;62384;53.600;10.040;2023-08-31T05:03:36;7.25;;;3.05;;
74042;SDS011;62384;53.600;10.040;2023-08-31T05:06:01;7.35;;;3.25;;
74042;SDS011;62384;53.600;10.040;2023-08-31T05:08:40;7.25;;;3.28;;
74042;SDS011;62384;53.600;10.040;2023-08-31T05:11:06;9.18;;;3.28;;
74042;SDS011;62384;53.600;10.040;2023-08-31T05:13:31;6.97;;;3.20;;
74042;SDS011;62384;53.600;10.040;2023-08-31T05:15:57;5.15;;;2.72;;
74042;SDS011;62384;53.600;10.040;2023-08-31T05:18:22;5.43;;;3.05;;
74042;SDS011;62384;53.600;10.040;2023-08-31T05:20:56;8.20;;;3.20;;
74042;SDS011;62384;53.600;10.040;2023-08-31T05:23:22;5.85;;;3.25;;
74042;SDS011;62384;53.600;10.040;2023-08-31T05:25:47;5.65;;;3.00;;
74042;SDS011;62384;53.600;10.040;2023-08-31T05:28:12;7.13;;;3.13;;
74042;SDS011;62384;53.600;10.040;2023-08-31T05:30:47;7.43;;;3.33;;
74042;SDS011;62384;53.600;10.040;2023-08-31T05:33:14;6.15;;;3.33;;
74042;SDS011;62384;53.600;10.040;2023-08-31T05:35:40;6.25;;;2.92;;
74042;SDS011;62384;53.600;10.040;2023-08-31T05:38:05;6.13;;;2.83;;
74042;SDS011;62384;53.600;10.040;2023-08-31T05:40:31;8.27;;;2.85;;
74042;SDS011;62384;53.600;10.040;2023-08-31T05:42:56;7.72;;;2.97;;
74042;SDS011;62384;53.600;10.040;2023-08-31T05:45:22;6.82;;;2.85;;
74042;SDS011;62384;53.600;10.040;2023-08-31T05:47:48;5.70;;;2.83;;
74042;SDS011;62384;53.600;10.040;2023-08-31T05:50:22;8.90;;;3.22;;
74042;SDS011;62384;53.600;10.040;2023-08-31T05:52:47;10.00;;;3.65;;
74042;SDS011;62384;53.600;10.040;2023-08-31T05:55:13;7.40;;;3.17;;
74042;SDS011;62384;53.600;10.040;2023-08-31T05:57:41;6.20;;;2.03;;
74042;SDS011;62384;53.600;10.040;2023-08-31T06:00:06;6.82;;;3.35;;
74042;SDS011;62384;53.600;10.040;2023-08-31T06:02:35;5.72;;;2.53;;
74042;SDS011;62384;53.600;10.040;2023-08-31T06:05:01;11.35;;;2.63;;
74042;SDS011;62384;53.600;10.040;2023-08-31T06:07:27;10.98;;;2.63;;
74042;SDS011;62384;53.600;10.040;2023-08-31T06:09:59;9.65;;;2.53;;
74042;SDS011;62384;53.600;10.040;2023-08-31T06:12:24;7.47;;;2.45;;
74042;SDS011;62384;53.600;10.040;2023-08-31T06:14:49;6.13;;;2.70;;
74042;SDS011;62384;53.600;10.040;2023-08-31T06:17:15;6.82;;;2.63;;
74042;SDS011;62384;53.600;10.040;2023-08-31T06:19:41;7.63;;;2.30;;
74042;SDS011;62384;53.600;10.040;2023-08-31T06:22:06;6.82;;;2.05;;
74042;SDS011;62384;53.600;10.040;2023-08-31T06:24:31;3.33;;;1.85;;
74042;SDS011;62384;53.600;10.040;2023-08-31T06:27:00;7.65;;;2.25;;
74042;SDS011;62384;53.600;10.040;2023-08-31T06:29:32;4.82;;;2.10;;
74042;SDS011;62384;53.600;10.040;2023-08-31T06:31:57;6.75;;;3.28;;
74042;SDS011;62384;53.600;10.040;2023-08-31T06:34:22;6.93;;;2.20;;
74042;SDS011;62384;53.600;10.040;2023-08-31T06:36:47;5.53;;;2.45;;
74042;SDS011;62384;53.600;10.040;2023-08-31T06:39:13;5.80;;;2.25;;
74042;SDS011;62384;53.600;10.040;2023-08-31T06:41:39;6.72;;;2.00;;
74042;SDS011;62384;53.600;10.040;2023-08-31T06:44:09;7.10;;;2.00;;
74042;SDS011;62384;53.600;10.040;2023-08-31T06:46:35;7.82;;;2.45;;
74042;SDS011;62384;53.600;10.040;2023-08-31T06:49:03;4.47;;;1.80;;
74042;SDS011;62384;53.600;10.040;2023-08-31T06:51:29;6.05;;;2.50;;
74042;SDS011;62384;53.600;10.040;2023-08-31T06:53:55;7.78;;;2.35;;
74042;SDS011;62384;53.600;10.040;2023-08-31T06:56:21;6.20;;;1.95;;
74042;SDS011;62384;53.600;10.040;2023-08-31T06:58:46;4.13;;;1.98;;
74042;SDS011;62384;53.600;10.040;2023-08-31T07:01:12;6.63;;;2.17;;
74042;SDS011;62384;53.600;10.040;2023-08-31T07:03:37;6.28;;;2.08;;
74042;SDS011;62384;53.600;10.040;2023-08-31T07:06:03;5.03;;;2.13;;
74042;SDS011;62384;53.600;10.040;2023-08-31T07:08:28;3.92;;;2.10;;
74042;SDS011;62384;53.600;10.040;2023-08-31T07:10:55;3.80;;;1.80;;
74042;SDS011;62384;53.600;10.040;2023-08-31T07:13:21;4.05;;;1.90;;
74042;SDS011;62384;53.600;10.040;2023-08-31T07:15:49;3.63;;;1.60;;
74042;SDS011;62384;53.600;10.040;2023-08-31T07:18:15;4.03;;;1.70;;
74042;SDS011;62384;53.600;10.040;2023-08-31T07:20:40;3.78;;;1.92;;
74042;SDS011;62384;53.600;10.040;2023-08-31T07:23:05;3.15;;;1.65;;
74042;SDS011;62384;53.600;10.040;2023-08-31T07:25:30;4.28;;;1.45;;
74042;SDS011;62384;53.600;10.040;2023-08-31T07:27:57;4.68;;;1.55;;
74042;SDS011;62384;53.600;10.040;2023-08-31T07:30:22;4.78;;;1.30;;
74042;SDS011;62384;53.600;10.040;2023-08-31T07:32:47;3.15;;;1.25;;
74042;SDS011;62384;53.600;10.040;2023-08-31T07:35:13;4.55;;;1.33;;
74042;SDS011;62384;53.600;10.040;2023-08-31T07:37:39;4.18;;;0.95;;
74042;SDS011;62384;53.600;10.040;2023-08-31T07:40:05;3.95;;;1.17;;
74042;SDS011;62384;53.600;10.040;2023-08-31T07:42:34;3.65;;;1.27;;
74042;SDS011;62384;53.600;10.040;2023-08-31T07:45:00;1.63;;;1.05;;
74042;SDS011;62384;53.600;10.040;2023-08-31T07:47:25;5.05;;;1.30;;
74042;SDS011;62384;53.600;10.040;2023-08-31T07:49:51;3.40;;;1.13;;
74042;SDS011;62384;53.600;10.040;2023-08-31T07:52:16;4.25;;;1.00;;
74042;SDS011;62384;53.600;10.040;2023-08-31T07:54:41;4.90;;;1.10;;
74042;SDS011;62384;53.600;10.040;2023-08-31T07:57:07;2.53;;;0.98;;
74042;SDS011;62384;53.600;10.040;2023-08-31T07:59:32;5.05;;;1.52;;
74042;SDS011;62384;53.600;10.040;2023-08-31T08:01:58;4.22;;;1.13;;
74042;SDS011;62384;53.600;10.040;2023-08-31T08:04:29;3.28;;;0.90;;
74042;SDS011;62384;53.600;10.040;2023-08-31T08:06:54;1.75;;;0.90;;
74042;SDS011;62384;53.600;10.040;2023-08-31T08:09:20;4.20;;;1.35;;
74042;SDS011;62384;53.600;10.040;2023-08-31T08:11:51;2.67;;;1.10;;
74042;SDS011;62384;53.600;10.040;2023-08-31T08:14:17;3.20;;;1.30;;
74042;SDS011;62384;53.600;10.040;2023-08-31T08:16:42;3.42;;;2.28;;
74042;SDS011;62384;53.600;10.040;2023-08-31T08:19:07;2.78;;;1.45;;
74042;SDS011;62384;53.600;10.040;2023-08-31T08:21:33;6.22;;;1.63;;
74042;SDS011;62384;53.600;10.040;2023-08-31T08:23:59;3.25;;;1.40;;
74042;SDS011;62384;53.600;10.040;2023-08-31T08:26:40;4.28;;;1.65;;
74042;SDS011;62384;53.600;10.040;2023-08-31T08:29:05;3.08;;;1.40;;
74042;SDS011;62384;53.600;10.040;2023-08-31T08:31:30;3.83;;;1.40;;
74042;SDS011;62384;53.600;10.040;2023-08-31T08:33:56;3.20;;;1.40;;
74042;SDS011;62384;53.600;10.040;2023-08-31T08:36:22;1.92;;;1.30;;
74042;SDS011;62384;53.600;10.040;2023-08-31T08:39:07;5.47;;;1.70;;
74042;SDS011;62384;53.600;10.040;2023-08-31T08:41:32;3.60;;;1.35;;
74042;SDS011;62384;53.600;10.040;2023-08-31T08:44:03;4.25;;;1.40;;
74042;SDS011;62384;53.600;10.040;2023-08-31T08:46:29;4.25;;;1.60;;
74042;SDS011;62384;53.600;10.040;2023-08-31T08:48:59;3.25;;;1.27;;
74042;SDS011;62384;53.600;10.040;2023-08-31T08:51:26;3.10;;;1.20;;
74042;SDS011;62384;53.600;10.040;2023-08-31T08:53:52;3.65;;;1.13;;
74042;SDS011;62384;53.600;10.040;2023-08-31T08:56:19;1.77;;;1.20;;
74042;SDS011;62384;53.600;10.040;2023-08-31T08:58:45;1.40;;;0.95;;
74042;SDS011;62384;53.600;10.040;2023-08-31T09:01:10;4.60;;;0.90;;
74042;SDS011;62384;53.600;10.040;2023-08-31T09:03:36;7.90;;;1.50;;
74042;SDS011;62384;53.600;10.040;2023-08-31T09:06:01;5.80;;;1.65;;
74042;SDS011;62384;53.600;10.040;2023-08-31T09:08:28;1.92;;;1.38;;
74042;SDS011;62384;53.600;10.040;2023-08-31T09:10:56;3.22;;;1.27;;
74042;SDS011;62384;53.600;10.040;2023-08-31T09:13:31;2.53;;;1.02;;
74042;SDS011;62384;53.600;10.040;2023-08-31T09:16:07;4.03;;;1.00;;
74042;SDS011;62384;53.600;10.040;2023-08-31T09:18:48;3.80;;;1.83;;
74042;SDS011;62384;53.600;10.040;2023-08-31T09:21:19;3.10;;;1.30;;
74042;SDS011;62384;53.600;10.040;2023-08-31T09:23:55;8.90;;;1.70;;
74042;SDS011;62384;53.600;10.040;2023-08-31T09:26:22;3.33;;;1.42;;
74042;SDS011;62384;53.600;10.040;2023-08-31T09:28:48;7.50;;;1.70;;
74042;SDS011;62384;53.600;10.040;2023-08-31T09:31:14;4.03;;;1.60;;
74042;SDS011;62384;53.600;10.040;2023-08-31T09:33:39;4.45;;;1.45;;
74042;SDS011;62384;53.600;10.040;2023-08-31T09:36:16;5.32;;;1.73;;
74042;SDS011;62384;53.600;10.040;2023-08-31T09:38:41;2.47;;;1.40;;
74042;SDS011;62384;53.600;10.040;2023-08-31T09:41:08;2.35;;;1.38;;
74042;SDS011;62384;53.600;10.040;2023-08-31T09:43:33;2.28;;;1.67;;
74042;SDS011;62384;53.600;10.040;2023-08-31T09:46:00;2.53;;;1.60;;
74042;SDS011;62384;53.600;10.040;2023-08-31T09:48:30;6.10;;;2.03;;
74042;SDS011;62384;53.600;10.040;2023-08-31T09:51:01;3.30;;;1.65;;
74042;SDS011;62384;53.600;10.040;2023-08-31T09:53:36;4.88;;;1.98;;
74042;SDS011;62384;53.600;10.040;2023-08-31T09:56:04;4.80;;;2.28;;
74042;SDS011;62384;53.600;10.040;2023-08-31T09:58:30;4.03;;;2.17;;
74042;SDS011;62384;53.600;10.040;2023-08-31T10:00:56;5.30;;;2.08;;
74042;SDS011;62384;53.600;10.040;2023-08-31T10:03:21;4.20;;;1.65;;
74042;SDS011;62384;53.600;10.040;2023-08-31T10:05:48;4.68;;;1.80;;
74042;SDS011;62384;53.600;10.040;2023-08-31T10:08:14;2.08;;;1.23;;
74042;SDS011;62384;53.600;10.040;2023-08-31T10:10:41;4.57;;;1.40;;
74042;SDS011;62384;53.600;10.040;2023-08-31T10:13:09;9.63;;;1.85;;
74042;SDS011;62384;53.600;10.040;2023-08-31T10:15:39;4.07;;;1.80;;
74042;SDS011;62384;53.600;10.040;2023-08-31T10:18:06;3.55;;;1.10;;
74042;SDS011;62384;53.600;10.040;2023-08-31T10:20:32;2.47;;;1.15;;
74042;SDS011;62384;53.600;10.040;2023-08-31T10:22:59;2.38;;;1.30;;
74042;SDS011;62384;53.600;10.040;2023-08-31T10:25:38;3.78;;;1.88;;
74042;SDS011;62384;53.600;10.040;2023-08-31T10:28:23;3.10;;;1.45;;
74042;SDS011;62384;53.600;10.040;2023-08-31T10:31:02;2.75;;;1.58;;
74042;SDS011;62384;53.600;10.040;2023-08-31T10:33:58;2.85;;;1.63;;
74042;SDS011;62384;53.600;10.040;2023-08-31T10:36:41;5.63;;;1.48;;
74042;SDS011;62384;53.600;10.040;2023-08-31T10:39:13;3.22;;;1.42;;
74042;SDS011;62384;53.600;10.040;2023-08-31T10:41:41;2.30;;;2.00;;
74042;SDS011;62384;53.600;10.040;2023-08-31T10:44:25;3.63;;;2.10;;
74042;SDS011;62384;53.600;10.040;2023-08-31T10:46:52;2.33;;;1.50;;
74042;SDS011;62384;53.600;10.040;2023-08-31T10:49:25;3.15;;;1.73;;
74042;SDS011;62384;53.600;10.040;2023-08-31T10:51:54;2.88;;;1.40;;
74042;SDS011;62384;53.600;10.040;2023-08-31T10:54:22;4.22;;;1.77;;
74042;SDS011;62384;53.600;10.040;2023-08-31T10:57:01;2.17;;;1.65;;
74042;SDS011;62384;53.600;10.040;2023-08-31T11:02:27;2.80;;;1.80;;
74042;SDS011;62384;53.600;10.040;2023-08-31T11:05:09;2.03;;;1.33;;
74042;SDS011;62384;53.600;10.040;2023-08-31T11:07:44;3.55;;;1.70;;
74042;SDS011;62384;53.600;10.040;2023-08-31T11:10:26;2.45;;;1.70;;
74042;SDS011;62384;53.600;10.040;2023-08-31T11:12:55;5.63;;;1.80;;
74042;SDS011;62384;53.600;10.040;2023-08-31T11:15:24;3.35;;;1.88;;
74042;SDS011;62384;53.600;10.040;2023-08-31T11:17:51;3.10;;;1.70;;
74042;SDS011;62384;53.600;10.040;2023-08-31T11:20:18;4.28;;;1.50;;
74042;SDS011;62384;53.600;10.040;2023-08-31T11:22:49;1.67;;;0.90;;
74042;SDS011;62384;53.600;10.040;2023-08-31T11:25:15;2.88;;;0.60;;
74042;SDS011;62384;53.600;10.040;2023-08-31T11:27:41;1.42;;;0.85;;
74042;SDS011;62384;53.600;10.040;2023-08-31T11:30:16;2.95;;;0.80;;
74042;SDS011;62384;53.600;10.040;2023-08-31T11:32:47;2.75;;;0.75;;
74042;SDS011;62384;53.600;10.040;2023-08-31T11:35:15;1.95;;;1.05;;
74042;SDS011;62384;53.600;10.040;2023-08-31T11:37:42;2.50;;;0.90;;
74042;SDS011;62384;53.600;10.040;2023-08-31T11:40:09;2.33;;;1.08;;
74042;SDS011;62384;53.600;10.040;2023-08-31T11:42:40;1.40;;;1.00;;
74042;SDS011;62384;53.600;10.040;2023-08-31T11:45:06;1.30;;;0.80;;
74042;SDS011;62384;53.600;10.040;2023-08-31T11:47:33;1.77;;;0.82;;
74042;SDS011;62384;53.600;10.040;2023-08-31T11:49:59;1.70;;;0.57;;
74042;SDS011;62384;53.600;10.040;2023-08-31T11:52:26;1.23;;;0.70;;
74042;SDS011;62384;53.600;10.040;2023-08-31T11:54:52;1.67;;;0.65;;
74042;SDS011;62384;53.600;10.040;2023-08-31T11:57:18;2.45;;;0.70;;
74042;SDS011;62384;53.600;10.040;2023-08-31T11:59:47;4.20;;;0.52;;
74042;SDS011;62384;53.600;10.040;2023-08-31T12:02:15;2.05;;;0.70;;
74042;SDS011;62384;53.600;10.040;2023-08-31T12:04:44;1.50;;;0.80;;
74042;SDS011;62384;53.600;10.040;2023-08-31T12:07:10;0.82;;;0.45;;
74042;SDS011;62384;53.600;10.040;2023-08-31T12:09:36;1.75;;;0.40;;
74042;SDS011;62384;53.600;10.040;2023-08-31T12:12:01;3.08;;;0.45;;
74042;SDS011;62384;53.600;10.040;2023-08-31T12:14:30;1.05;;;0.47;;
74042;SDS011;62384;53.600;10.040;2023-08-31T12:17:03;0.65;;;0.40;;
74042;SDS011;62384;53.600;10.040;2023-08-31T12:19:31;1.95;;;0.50;;
74042;SDS011;62384;53.600;10.040;2023-08-31T12:21:57;1.73;;;0.40;;
74042;SDS011;62384;53.600;10.040;2023-08-31T12:24:25;2.08;;;0.50;;
74042;SDS011;62384;53.600;10.040;2023-08-31T12:26:51;3.25;;;0.50;;
74042;SDS011;62384;53.600;10.040;2023-08-31T12:29:26;3.00;;;0.43;;
74042;SDS011;62384;53.600;10.040;2023-08-31T12:31:51;1.25;;;0.30;;
74042;SDS011;62384;53.600;10.040;2023-08-31T12:34:16;2.00;;;0.60;;
74042;SDS011;62384;53.600;10.040;2023-08-31T12:36:42;1.38;;;0.38;;
74042;SDS011;62384;53.600;10.040;2023-08-31T12:39:07;1.75;;;0.50;;
74042;SDS011;62384;53.600;10.040;2023-08-31T12:41:37;1.15;;;0.40;;
74042;SDS011;62384;53.600;10.040;2023-08-31T12:44:04;0.45;;;0.32;;
74042;SDS011;62384;53.600;10.040;2023-08-31T12:46:30;1.70;;;0.20;;
74042;SDS011;62384;53.600;10.040;2023-08-31T12:49:01;0.65;;;0.35;;
74042;SDS011;62384;53.600;10.040;2023-08-31T12:51:35;1.67;;;0.30;;
74042;SDS011;62384;53.600;10.040;2023-08-31T12:54:01;2.05;;;0.47;;
74042;SDS011;62384;53.600;10.040;2023-08-31T12:56:26;1.15;;;0.55;;
74042;SDS011;62384;53.600;10.040;2023-08-31T12:59:01;0.68;;;0.30;;
74042;SDS011;62384;53.600;10.040;2023-08-31T13:01:26;0.43;;;0.30;;
74042;SDS011;62384;53.600;10.040;2023-08-31T13:03:51;1.85;;;0.70;;
74042;SDS011;62384;53.600;10.040;2023-08-31T13:06:17;0.90;;;0.40;;
74042;SDS011;62384;53.600;10.040;2023-08-31T13:08:43;1.60;;;0.40;;
74042;SDS011;62384;53.600;10.040;2023-08-31T13:11:09;1.17;;;0.47;;
74042;SDS011;62384;53.600;10.040;2023-08-31T13:13:35;0.70;;;0.30;;
74042;SDS011;62384;53.600;10.040;2023-08-31T13:16:00;0.43;;;0.32;;
74042;SDS011;62384;53.600;10.040;2023-08-31T13:18:26;1.08;;;0.20;;
74042;SDS011;62384;53.600;10.040;2023-08-31T13:20:52;0.73;;;0.30;;
74042;SDS011;62384;53.600;10.040;2023-08-31T13:23:18;0.20;;;0.20;;
74042;SDS011;62384;53.600;10.040;2023-08-31T13:46:06;0.65;;;0.30;;
74042;SDS011;62384;53.600;10.040;2023-08-31T13:48:31;0.93;;;0.30;;
74042;SDS011;62384;53.600;10.040;2023-08-31T13:50:57;1.42;;;0.40;;
74042;SDS011;62384;53.600;10.040;2023-08-31T13:53:22;2.53;;;0.50;;
74042;SDS011;62384;53.600;10.040;2023-08-31T13:55:47;0.85;;;0.30;;
74042;SDS011;62384;53.600;10.040;2023-08-31T13:58:12;0.30;;;0.25;;
74042;SDS011;62384;53.600;10.040;2023-08-31T14:00:38;0.73;;;0.47;;
74042;SDS011;62384;53.600;10.040;2023-08-31T14:03:04;1.45;;;0.30;;
74042;SDS011;62384;53.600;10.040;2023-08-31T14:05:30;0.28;;;0.20;;
74042;SDS011;62384;53.600;10.040;2023-08-31T14:07:56;2.00;;;0.35;;
74042;SDS011;62384;53.600;10.040;2023-08-31T14:10:22;1.02;;;0.20;;
74042;SDS011;62384;53.600;10.040;2023-08-31T14:12:48;2.45;;;0.90;;
74042;SDS011;62384;53.600;10.040;2023-08-31T14:15:19;1.35;;;0.30;;
74042;SDS011;62384;53.600;10.040;2023-08-31T14:17:44;0.83;;;0.40;;
74042;SDS011;62384;53.600;10.040;2023-08-31T14:20:10;2.78;;;0.57;;
74042;SDS011;62384;53.600;10.040;2023-08-31T14:22:36;1.55;;;0.70;;
74042;SDS011;62384;53.600;10.040;2023-08-31T14:25:02;1.88;;;0.70;;
74042;SDS011;62384;53.600;10.040;2023-08-31T14:27:28;2.90;;;0.98;;
74042;SDS011;62384;53.600;10.040;2023-08-31T14:29:59;1.85;;;0.40;;
74042;SDS011;62384;53.600;10.040;2023-08-31T14:32:25;0.68;;;0.40;;
74042;SDS011;62384;53.600;10.040;2023-08-31T14:34:50;2.78;;;0.50;;
74042;SDS011;62384;53.600;10.040;2023-08-31T14:37:15;1.67;;;0.40;;
74042;SDS011;62384;53.600;10.040;2023-08-31T14:39:40;5.07;;;0.40;;
74042;SDS011;62384;53.600;10.040;2023-08-31T14:42:06;2.63;;;0.40;;
74042;SDS011;62384;53.600;10.040;2023-08-31T14:44:31;2.72;;;0.30;;
74042;SDS011;62384;53.600;10.040;2023-08-31T14:46:56;1.45;;;0.35;;
74042;SDS011;62384;53.600;10.040;2023-08-31T14:49:22;0.63;;;0.30;;
74042;SDS011;62384;53.600;10.040;2023-08-31T14:51:59;3.45;;;0.35;;
74042;SDS011;62384;53.600;10.040;2023-08-31T14:54:44;0.40;;;0.40;;
74042;SDS011;62384;53.600;10.040;2023-08-31T14:57:10;1.27;;;0.30;;
74042;SDS011;62384;53.600;10.040;2023-08-31T14:59:35;3.05;;;0.40;;
74042;SDS011;62384;53.600;10.040;2023-08-31T15:02:01;1.13;;;0.50;;
74042;SDS011;62384;53.600;10.040;2023-08-31T15:04:29;5.00;;;0.50;;
74042;SDS011;62384;53.600;10.040;2023-08-31T15:06:56;1.80;;;0.40;;
74042;SDS011;62384;53.600;10.040;2023-08-31T15:09:22;0.43;;;0.25;;
74042;SDS011;62384;53.600;10.040;2023-08-31T15:12:01;0.82;;;0.40;;
74042;SDS011;62384;53.600;10.040;2023-08-31T15:14:29;1.50;;;0.50;;